Time;durP1;ratioP1;P1;durP2;ratioP2;P2;SDS_P1;SDS_P2;PMS_P1;PMS_P2;Temp;Humidity;BMP_temperature;BMP_pressure;BME280_temperature;BME280_humidity;BME280_pressure;Samples;Min_cycle;Max_cycle;Signal;HPM_P1;HPM_P2
2022/02/10 00:16:31;;;;;;;42.53;28.58;;;;;;;3.38;61.18;101767.44;5054342;28;20438;-73
2022/02/10 00:21:48;;;;;;;30.92;24.17;;;;;;;3.54;61.57;101790.75;5041903;28;20043;-74
2022/02/10 00:35:10;;;;;;;41.50;28.65;;;;;;;3.23;61.59;101785.72;5041384;28;20163;-73
2022/02/10 00:37:49;;;;;;;39.67;26.45;;;;;;;3.32;61.12;101764.50;5042734;28;20045;-74
2022/02/10 00:40:18;;;;;;;40.20;25.40;;;;;;;3.38;61.32;101763.13;5036709;28;20051;-73
2022/02/10 00:42:44;;;;;;;36.22;25.58;;;;;;;3.17;61.87;101759.44;5041671;28;20037;-74
2022/02/10 00:45:10;;;;;;;43.75;27.42;;;;;;;3.17;62.44;101775.00;5058125;28;20065;-74
2022/02/10 00:47:51;;;;;;;40.33;26.17;;;;;;;2.90;62.09;101748.50;5045228;28;20029;-74
2022/02/10 00:50:16;;;;;;;31.45;25.88;;;;;;;2.90;62.49;101762.38;5054701;28;20052;-76
2022/02/10 00:52:43;;;;;;;35.13;27.60;;;;;;;3.32;61.26;101751.53;5044969;28;20037;-73
2022/02/10 00:55:09;;;;;;;36.25;28.60;;;;;;;3.29;61.11;101752.28;5038604;28;20511;-73
2022/02/10 00:57:36;;;;;;;38.63;27.17;;;;;;;3.21;61.80;101763.06;5043742;28;20041;-73
2022/02/10 01:07:02;;;;;;;30.15;26.15;;;;;;;3.08;62.37;101770.22;5044998;28;20059;-73
2022/02/10 01:30:21;;;;;;;32.13;26.63;;;;;;;3.12;62.06;101779.94;5029625;28;20163;-74
2022/02/10 01:32:51;;;;;;;26.88;22.33;;;;;;;3.16;62.14;101788.75;5042760;28;20032;-75
2022/02/10 01:35:21;;;;;;;41.58;26.63;;;;;;;2.88;61.91;101757.91;5041440;28;20115;-74
2022/02/10 01:37:47;;;;;;;41.33;26.60;;;;;;;3.14;61.91;101761.88;5038892;28;20045;-74
2022/02/10 01:40:22;;;;;;;33.33;26.83;;;;;;;3.02;61.80;101767.31;5035916;28;20041;-74
2022/02/10 02:04:17;;;;;;;37.42;25.17;;;;;;;2.86;62.51;101763.03;5040204;28;20048;-75
2022/02/10 02:06:46;;;;;;;32.53;26.80;;;;;;;3.05;63.47;101780.44;5041128;28;20044;-75
2022/02/10 02:09:15;;;;;;;34.33;28.00;;;;;;;2.86;63.65;101762.16;5041725;28;20033;-75
2022/02/10 02:11:46;;;;;;;37.53;27.23;;;;;;;3.01;62.83;101790.56;5046246;28;20041;-75
2022/02/10 02:14:19;;;;;;;39.30;27.50;;;;;;;2.69;63.53;101766.41;5041483;28;20083;-75
2022/02/10 02:16:55;;;;;;;37.65;26.55;;;;;;;2.38;63.93;101766.44;5040867;28;20052;-75
2022/02/10 02:19:21;;;;;;;38.05;27.02;;;;;;;2.67;64.31;101794.84;5045286;28;20062;-75
2022/02/10 02:21:47;;;;;;;39.90;27.88;;;;;;;2.27;64.50;101765.84;5041541;28;20033;-76
2022/02/10 02:24:20;;;;;;;38.47;29.38;;;;;;;2.48;64.73;101777.41;5040868;28;20727;-75
2022/02/10 02:26:57;;;;;;;37.97;27.95;;;;;;;2.53;64.34;101786.31;5040321;28;20083;-75
2022/02/10 02:29:45;;;;;;;37.85;29.35;;;;;;;2.45;64.17;101764.25;5042001;28;20111;-75
2022/02/10 02:32:20;;;;;;;35.30;26.73;;;;;;;2.67;63.83;101792.25;5039927;28;20102;-75
2022/02/10 03:06:56;;;;;;;38.53;27.40;;;;;;;2.35;64.47;101790.47;5047005;28;20076;-74
2022/02/10 03:09:26;;;;;;;34.58;26.23;;;;;;;2.39;64.43;101763.94;5043660;28;20128;-74
2022/02/10 03:11:55;;;;;;;36.78;27.20;;;;;;;2.71;62.93;101762.19;5042730;28;20033;-74
2022/02/10 03:14:26;;;;;;;38.70;26.17;;;;;;;2.52;62.11;101747.38;5052713;28;20040;-74
2022/02/10 03:19:52;;;;;;;30.80;25.48;;;;;;;2.83;62.14;101783.56;5041422;28;20037;-73
2022/02/10 04:06:16;;;;;;;37.92;24.20;;;;;;;2.66;63.28;101755.88;5039964;28;20051;-73
2022/02/10 04:11:50;;;;;;;33.25;23.88;;;;;;;2.52;64.19;101749.94;5040364;28;19913;-74
2022/02/10 04:14:29;;;;;;;36.47;26.20;;;;;;;2.62;64.89;101753.94;5043850;28;20387;-74
2022/02/10 04:26:04;;;;;;;39.30;24.13;;;;;;;2.58;63.94;101752.00;5022419;28;20053;-74
2022/02/10 05:34:47;;;;;;;;;;;;;;;2.74;63.26;101771.03;5040257;28;20033;-74
2022/02/10 05:37:16;;;;;;;41.42;24.13;;;;;;;2.59;63.67;101775.38;5037783;28;19923;-74
2022/02/10 05:39:45;;;;;;;30.70;23.23;;;;;;;2.60;62.86;101764.22;5023816;28;20059;-74
2022/02/10 06:58:07;;;;;;;42.20;24.67;;;;;;;3.96;59.09;101764.25;5040624;28;20037;-75
2022/02/10 07:16:12;;;;;;;43.70;27.80;;;;;;;4.51;58.70;101790.25;5059161;28;20052;-75
2022/02/10 07:54:29;;;;;;;38.78;26.17;;;;;;;5.92;53.79;101762.63;5049824;28;20128;-75
2022/02/10 07:57:36;;;;;;;34.72;25.60;;;;;;;6.13;54.04;101796.50;5043459;28;20025;-74
2022/02/10 08:55:33;;;;;;;37.50;23.38;;;;;;;7.99;49.58;101730.09;5039492;28;20044;-74
2022/02/10 09:51:02;;;;;;;21.85;15.55;;;;;;;9.26;49.71;101717.25;5043548;28;20039;-72
2022/02/10 10:02:57;;;;;;;24.88;16.63;;;;;;;9.78;49.58;101706.31;5030120;28;20064;-72
2022/02/10 10:05:30;;;;;;;24.80;18.42;;;;;;;9.87;49.16;101709.16;5052182;28;20060;-72
2022/02/10 10:19:01;;;;;;;19.02;15.85;;;;;;;10.11;47.59;101666.88;5040819;28;20041;-71
2022/02/10 10:21:40;;;;;;;32.40;15.65;;;;;;;10.46;47.90;101661.53;5034806;28;20098;-72
2022/02/10 10:50:01;;;;;;;19.27;13.40;;;;;;;11.61;44.37;101653.09;5003606;28;20030;-73
2022/02/10 10:57:54;;;;;;;18.17;12.88;;;;;;;12.61;42.75;101639.59;5037617;28;20044;-73
2022/02/10 11:42:09;;;;;;;21.63;14.77;;;;;;;13.66;40.40;101562.34;5045170;28;20147;-73
2022/02/10 12:36:00;;;;;;;25.05;14.60;;;;;;;12.30;41.11;101551.50;5040068;28;20095;-73
2022/02/10 13:29:09;;;;;;;13.20;7.10;;;;;;;12.40;41.88;101474.38;5045116;28;20033;-73
2022/02/10 13:31:25;;;;;;;8.95;6.93;;;;;;;12.51;42.55;101500.81;5029620;28;20126;-74
2022/02/10 14:14:12;;;;;;;8.40;6.22;;;;;;;12.49;41.64;101431.47;5046382;28;20037;-74
2022/02/10 14:16:44;;;;;;;14.23;7.85;;;;;;;12.57;42.24;101457.84;5035026;28;20045;-71
2022/02/10 14:19:18;;;;;;;13.88;8.23;;;;;;;12.19;42.53;101424.19;5046444;28;20045;-69
2022/02/10 14:22:26;;;;;;;11.02;8.13;;;;;;;12.36;42.65;101441.03;5044885;28;20037;-69
2022/02/10 14:27:38;;;;;;;10.93;6.28;;;;;;;12.28;42.67;101444.44;5043466;28;20132;-74
2022/02/10 14:30:10;;;;;;;23.85;7.90;;;;;;;12.12;43.04;101424.97;5040404;28;20522;-74
2022/02/10 14:32:41;;;;;;;22.83;8.07;;;;;;;11.99;42.94;101419.59;5043899;28;20039;-73
2022/02/10 15:10:51;;;;;;;23.95;7.40;;;;;;;11.95;44.68;101448.50;5043262;28;20469;-74
2022/02/10 15:31:01;;;;;;;13.75;9.45;;;;;;;11.16;50.68;101423.81;5044035;28;20079;-72
2022/02/10 15:36:30;;;;;;;15.23;9.55;;;;;;;11.08;50.23;101390.44;5044153;28;20070;-73
2022/02/10 16:17:12;;;;;;;17.10;12.50;;;;;;;10.49;53.74;101413.19;5044426;28;20048;-74
2022/02/10 16:19:38;;;;;;;18.60;11.35;;;;;;;10.41;54.22;101406.03;5045443;28;20544;-74
2022/02/10 16:22:11;;;;;;;15.13;11.05;;;;;;;10.66;53.97;101442.31;5042953;28;20116;-74
2022/02/10 16:24:48;;;;;;;18.77;11.57;;;;;;;10.61;53.83;101438.75;5029010;28;20097;-74
2022/02/10 16:27:23;;;;;;;18.48;12.32;;;;;;;10.55;53.73;101402.78;5026077;28;20048;-74
2022/02/10 16:29:49;;;;;;;27.92;12.75;;;;;;;10.61;53.91;101428.25;5045701;28;20051;-74
2022/02/10 16:32:15;;;;;;;25.45;14.02;;;;;;;10.53;53.96;101412.34;5043620;28;20401;-74
2022/02/10 16:34:43;;;;;;;19.55;12.65;;;;;;;10.31;54.41;101405.88;5058314;28;20391;-75
2022/02/10 16:37:10;;;;;;;24.02;13.35;;;;;;;10.07;55.00;101400.19;5052355;28;20404;-74
2022/02/10 16:39:37;;;;;;;16.17;12.20;;;;;;;10.48;54.73;101439.41;5044422;28;20537;-74
2022/02/10 16:42:05;;;;;;;18.35;12.98;;;;;;;10.22;54.97;101399.56;5042180;28;20041;-74
2022/02/10 16:44:31;;;;;;;40.08;14.05;;;;;;;10.30;54.85;101416.34;5039925;28;20086;-74
2022/02/10 16:46:56;;;;;;;16.73;12.43;;;;;;;10.39;55.00;101441.84;5044157;28;20040;-75
2022/02/10 16:49:23;;;;;;;17.98;12.88;;;;;;;10.10;55.63;101442.19;5056484;28;20039;-74
2022/02/10 16:51:49;;;;;;;18.10;12.10;;;;;;;10.14;55.82;101436.16;5042593;28;20037;-74
2022/02/10 16:54:24;;;;;;;21.10;13.18;;;;;;;10.01;55.79;101408.81;5049305;28;20411;-73
2022/02/10 16:57:14;;;;;;;22.92;13.43;;;;;;;10.10;56.16;101439.56;5040316;28;20028;-74
2022/02/10 17:18:24;;;;;;;25.13;16.70;;;;;;;9.58;57.99;101414.97;5043767;28;20044;-74
2022/02/10 17:29:08;;;;;;;25.95;18.38;;;;;;;9.41;57.79;101397.19;5043105;28;20453;-75
2022/02/10 17:32:05;;;;;;;24.20;15.65;;;;;;;9.21;58.12;101388.88;5039698;28;20032;-74
2022/02/10 17:43:42;;;;;;;26.40;19.95;;;;;;;9.34;58.80;101413.63;5043245;28;20138;-74
2022/02/10 17:54:11;;;;;;;25.95;19.10;;;;;;;9.10;59.79;101400.84;5035496;28;20102;-74
2022/02/10 17:56:38;;;;;;;28.00;19.05;;;;;;;9.06;59.86;101371.13;5045968;28;20075;-73
2022/02/10 17:59:04;;;;;;;25.45;19.85;;;;;;;9.13;60.01;101393.09;5043702;28;20057;-74
2022/02/10 18:01:31;;;;;;;21.33;15.45;;;;;;;9.11;60.34;101378.19;5041866;28;20049;-74
2022/02/10 18:04:20;;;;;;;25.48;17.17;;;;;;;8.86;60.93;101354.09;5042948;28;20128;-74
2022/02/10 18:06:52;;;;;;;32.30;17.95;;;;;;;9.06;60.50;101371.13;5042470;28;20045;-74
2022/02/10 18:12:59;;;;;;;26.48;19.08;;;;;;;9.05;60.85;101351.03;5043455;28;20481;-75
2022/02/10 18:14:40;;;;;;;22.98;17.67;;;;;;;9.16;60.65;101358.22;5045852;28;20037;-74
2022/02/10 18:19:43;;;;;;;34.03;19.42;;;;;;;9.06;61.53;101393.78;5042898;28;20428;-74
2022/02/10 18:22:30;;;;;;;35.67;18.92;;;;;;;8.91;62.16;101375.13;5034417;28;20404;-74
2022/02/10 18:27:32;;;;;;;27.05;17.45;;;;;;;8.83;62.07;101354.03;5035971;28;20076;-74
2022/02/10 19:06:50;;;;;;;25.83;17.35;;;;;;;8.54;63.26;101348.13;5032484;28;21218;-75
2022/02/10 19:09:32;;;;;;;25.98;16.70;;;;;;;8.53;63.56;101356.84;5053498;28;20380;-74
2022/02/10 19:12:04;;;;;;;23.30;16.02;;;;;;;8.42;63.80;101346.09;5040872;28;20128;-75
2022/02/10 19:15:12;;;;;;;27.60;17.20;;;;;;;8.32;64.46;101354.56;5045038;28;20021;-76
2022/02/10 19:18:09;;;;;;;21.67;16.05;;;;;;;8.28;64.44;101350.97;5039589;28;20065;-75
2022/02/10 19:20:39;;;;;;;19.92;14.98;;;;;;;8.82;63.41;101374.06;5040216;28;20029;-76
2022/02/10 19:23:08;;;;;;;18.98;14.43;;;;;;;8.54;63.43;101341.16;5054416;28;20049;-73
2022/02/10 19:25:43;;;;;;;32.13;15.70;;;;;;;8.58;63.35;101336.88;5048070;28;20107;-74
2022/02/10 19:31:22;;;;;;;26.95;18.73;;;;;;;8.56;63.36;101349.91;5042432;28;20060;-74
2022/02/10 19:33:50;;;;;;;20.45;16.30;;;;;;;8.51;63.48;101329.75;5046275;28;20041;-74
2022/02/10 19:36:16;;;;;;;19.48;15.45;;;;;;;8.32;64.10;101328.41;5039685;28;20041;-74
2022/02/10 19:38:41;;;;;;;20.48;14.85;;;;;;;8.68;63.09;101346.69;5039662;28;20158;-74
2022/02/10 19:41:07;;;;;;;23.40;14.07;;;;;;;8.59;63.18;101325.56;5046189;28;20025;-74
2022/02/10 19:43:32;;;;;;;20.08;14.15;;;;;;;8.66;63.59;101343.16;5057717;28;20033;-74
2022/02/10 19:45:58;;;;;;;28.63;15.23;;;;;;;8.24;64.19;101320.34;5031992;28;20040;-74
2022/02/10 19:48:26;;;;;;;32.13;15.70;;;;;;;8.32;64.89;101346.72;5045356;28;20052;-74
2022/02/10 19:50:53;;;;;;;23.13;15.93;;;;;;;8.36;64.57;101325.91;5042940;28;20025;-75
2022/02/10 19:53:21;;;;;;;21.75;15.20;;;;;;;8.29;64.30;101317.84;5044821;28;20029;-74
2022/02/10 19:56:28;;;;;;;24.20;17.50;;;;;;;8.09;65.01;101318.25;5048487;28;20037;-74
2022/02/10 19:58:53;;;;;;;24.45;15.32;;;;;;;8.12;64.93;101315.72;5041153;28;20043;-75
2022/02/10 20:01:20;;;;;;;19.50;16.08;;;;;;;8.17;64.84;101302.75;5047094;28;20037;-74
2022/02/10 20:03:48;;;;;;;22.52;16.23;;;;;;;8.18;65.10;101309.78;5051045;28;20045;-74
2022/02/10 20:06:13;;;;;;;21.45;17.48;;;;;;;8.37;64.40;101305.84;5042274;28;20533;-74
2022/02/10 20:08:39;;;;;;;22.95;16.05;;;;;;;8.44;64.41;101326.97;5044953;28;20033;-75
2022/02/10 20:11:05;;;;;;;26.42;16.23;;;;;;;8.33;64.30;101301.41;5049600;28;20060;-74
2022/02/10 20:13:32;;;;;;;18.15;16.05;;;;;;;8.46;64.58;101332.25;5045965;28;20095;-76
2022/02/10 20:16:02;;;;;;;27.38;17.25;;;;;;;8.22;64.73;101299.41;5058864;28;20044;-75
2022/02/10 20:18:49;;;;;;;29.25;17.13;;;;;;;8.52;64.36;101340.25;5047133;28;20044;-74
2022/02/10 20:21:24;;;;;;;23.75;17.05;;;;;;;8.20;64.87;101313.31;5046093;28;20033;-75
2022/02/10 20:23:50;;;;;;;18.75;14.68;;;;;;;8.21;64.66;101302.00;5039729;28;20377;-75
2022/02/10 20:26:16;;;;;;;20.35;15.32;;;;;;;8.06;64.80;101292.06;5040872;28;20037;-75
2022/02/10 20:28:43;;;;;;;26.23;14.25;;;;;;;8.11;64.66;101294.78;5045741;28;20043;-75
2022/02/10 20:31:09;;;;;;;21.35;12.77;;;;;;;8.23;64.53;101293.34;5043414;28;20059;-75
2022/02/10 20:33:35;;;;;;;18.08;14.27;;;;;;;8.14;64.61;101289.63;5047276;28;20123;-75
2022/02/10 20:36:04;;;;;;;22.17;14.00;;;;;;;8.08;64.80;101287.75;5046863;28;20059;-75
2022/02/10 20:38:33;;;;;;;17.02;12.95;;;;;;;8.32;65.02;101328.41;5044015;28;20028;-75
2022/02/10 20:41:05;;;;;;;21.55;14.73;;;;;;;8.19;65.22;101320.28;5052771;28;20047;-75
2022/02/10 20:43:56;;;;;;;17.05;14.82;;;;;;;8.33;64.90;101322.31;5056145;28;20071;-73
2022/02/10 20:49:52;;;;;;;19.38;14.65;;;;;;;8.17;64.54;101297.53;5048413;28;20056;-74
2022/02/10 20:56:02;;;;;;;17.17;13.73;;;;;;;7.82;65.70;101269.69;5056084;28;20028;-74
2022/02/10 20:58:29;;;;;;;17.88;14.23;;;;;;;7.96;66.02;101305.72;5049499;28;20035;-74
2022/02/10 21:00:59;;;;;;;23.75;15.88;;;;;;;7.91;65.43;101269.03;5050082;28;20033;-71
2022/02/10 21:03:36;;;;;;;18.33;14.15;;;;;;;8.10;65.67;101304.38;5053238;28;20041;-70
2022/02/10 21:06:56;;;;;;;23.60;14.27;;;;;;;7.90;65.76;101285.56;5052984;28;20036;-72
2022/02/10 21:09:16;;;;;;;21.00;14.32;;;;;;;8.08;65.77;101308.66;5038569;28;20500;-74
2022/02/10 21:11:41;;;;;;;23.27;15.10;;;;;;;7.80;66.00;101263.56;5042608;28;20041;-72
2022/02/10 21:14:14;;;;;;;18.20;14.82;;;;;;;7.89;66.34;101285.50;5044826;28;20024;-72
2022/02/10 21:16:41;;;;;;;22.67;17.30;;;;;;;7.96;65.92;101287.44;5044678;28;20037;-73
2022/02/10 21:19:07;;;;;;;22.17;16.40;;;;;;;7.92;65.94;101290.84;5040750;28;20104;-72
2022/02/10 21:21:32;;;;;;;20.00;16.63;;;;;;;7.97;66.05;101297.06;5043942;28;20114;-72
2022/02/10 21:24:11;;;;;;;16.38;14.30;;;;;;;7.66;66.34;101258.84;5060142;28;20360;-72
2022/02/10 21:26:51;;;;;;;18.05;14.85;;;;;;;7.86;65.96;101278.47;5042630;28;20079;-74
2022/02/10 21:29:17;;;;;;;25.65;15.38;;;;;;;7.81;65.90;101267.91;5036628;28;20568;-73
2022/02/10 21:31:45;;;;;;;18.85;15.73;;;;;;;7.67;66.07;101258.84;5041880;28;20151;-74
2022/02/10 21:34:16;;;;;;;29.42;16.60;;;;;;;7.69;66.26;101257.16;5040978;28;20175;-74
2022/02/10 21:37:06;;;;;;;20.13;15.05;;;;;;;7.66;66.46;101259.72;5039497;28;20132;-73
2022/02/10 21:39:47;;;;;;;19.98;14.13;;;;;;;7.81;66.52;101282.72;5036027;28;20400;-73
2022/02/10 21:47:51;;;;;;;20.05;13.90;;;;;;;7.61;66.73;101259.59;5043662;28;20075;-73
2022/02/10 22:02:07;;;;;;;21.75;15.88;;;;;;;7.47;67.56;101236.56;5038504;28;20037;-71
2022/02/10 22:19:35;;;;;;;18.88;14.27;;;;;;;7.20;68.02;101221.94;5044865;28;20099;-74
2022/02/10 22:22:09;;;;;;;18.27;14.23;;;;;;;7.15;68.01;101198.31;5064578;28;20036;-73
2022/02/10 22:24:35;;;;;;;25.10;16.05;;;;;;;6.87;68.84;101214.97;5038434;28;20122;-73
2022/02/10 22:27:22;;;;;;;21.48;15.07;;;;;;;7.04;68.65;101233.69;5042156;28;20473;-74
2022/02/10 22:29:53;;;;;;;18.83;14.82;;;;;;;7.06;69.05;101234.63;5039078;28;20037;-73
2022/02/10 22:32:44;;;;;;;22.00;15.95;;;;;;;6.96;68.75;101204.78;5039095;28;20112;-73
2022/02/10 22:35:11;;;;;;;20.05;16.65;;;;;;;6.85;69.40;101242.72;5057351;28;20053;-72
2022/02/10 22:37:56;;;;;;;24.77;16.67;;;;;;;6.74;69.72;101208.53;5064481;28;20468;-72
2022/02/10 22:41:00;;;;;;;23.00;15.48;;;;;;;6.70;69.27;101204.06;5035383;28;20171;-75
2022/02/10 22:43:08;;;;;;;27.55;17.45;;;;;;;6.74;69.91;101220.66;5045383;28;20060;-74
2022/02/10 22:45:34;;;;;;;24.13;16.63;;;;;;;6.36;70.75;101204.78;5039956;28;20049;-73
2022/02/10 22:47:59;;;;;;;25.27;19.52;;;;;;;6.42;70.87;101206.72;5044579;28;20037;-74
2022/02/10 22:50:47;;;;;;;24.35;17.15;;;;;;;6.20;71.88;101226.88;5038891;28;20579;-74
2022/02/10 22:53:43;;;;;;;22.85;18.73;;;;;;;6.33;71.26;101221.22;5042726;28;20064;-72
2022/02/10 22:56:18;;;;;;;24.35;17.25;;;;;;;5.99;72.23;101210.59;5039004;28;20057;-72
2022/02/10 22:58:45;;;;;;;29.08;19.85;;;;;;;6.15;71.90;101205.03;5038954;28;20135;-74
2022/02/10 23:01:12;;;;;;;29.35;20.55;;;;;;;6.21;71.55;101202.63;5038935;28;20087;-73
2022/02/10 23:03:39;;;;;;;34.25;21.15;;;;;;;6.34;70.93;101202.16;5043316;28;20048;-73
2022/02/10 23:06:07;;;;;;;32.45;22.60;;;;;;;6.28;71.31;101212.38;5040076;28;20566;-73
2022/02/10 23:08:33;;;;;;;31.35;24.80;;;;;;;6.08;71.34;101193.53;5040963;28;20029;-73
2022/02/10 23:10:59;;;;;;;34.03;22.20;;;;;;;6.51;71.02;101227.84;5038791;28;20040;-73
2022/02/10 23:13:29;;;;;;;32.60;23.40;;;;;;;6.23;71.13;101206.16;5042034;28;20141;-74
2022/02/10 23:16:05;;;;;;;31.30;25.75;;;;;;;6.10;71.05;101196.19;5030947;28;20046;-73
2022/02/10 23:18:33;;;;;;;39.63;26.73;;;;;;;5.91;71.69;101187.75;5044068;28;20499;-73
2022/02/10 23:21:05;;;;;;;34.83;26.42;;;;;;;6.18;71.02;101188.59;5044031;28;20029;-73
2022/02/10 23:23:32;;;;;;;35.72;25.85;;;;;;;6.00;70.86;101168.97;5044773;28;20032;-73
2022/02/10 23:25:59;;;;;;;35.80;25.13;;;;;;;5.64;72.29;101179.97;5042543;28;20040;-72
2022/02/10 23:28:37;;;;;;;29.33;25.58;;;;;;;5.56;72.20;101164.94;5045094;28;20040;-72
2022/02/10 23:31:06;;;;;;;36.58;26.45;;;;;;;5.72;72.84;101203.66;5042360;28;20033;-72
2022/02/10 23:33:36;;;;;;;35.00;25.17;;;;;;;5.78;72.30;101198.63;5050351;28;20396;-71
2022/02/10 23:38:58;;;;;;;39.53;26.58;;;;;;;5.57;72.98;101196.22;5046446;28;20095;-73
2022/02/10 23:44:24;;;;;;;32.55;26.02;;;;;;;5.71;72.35;101171.53;5055314;28;20119;-73
2022/02/10 23:46:49;;;;;;;34.85;26.00;;;;;;;5.51;72.51;101167.38;5043488;28;20049;-73
2022/02/10 23:49:19;;;;;;;30.75;26.75;;;;;;;5.36;72.85;101165.16;5047631;28;20514;-72
2022/02/10 23:51:52;;;;;;;33.63;26.38;;;;;;;5.56;72.68;101170.13;5046298;28;20166;-74
2022/02/10 23:54:18;;;;;;;32.38;24.73;;;;;;;5.77;72.19;101173.41;5048557;28;20037;-73
2022/02/10 23:57:16;;;;;;;31.70;26.15;;;;;;;5.58;72.38;101152.84;5047529;28;20534;-73
